Time;durP1;ratioP1;P1;durP2;ratioP2;P2;SDS_P1;SDS_P2;PMS_P1;PMS_P2;Temp;Humidity;BMP_temperature;BMP_pressure;BME280_temperature;BME280_humidity;BME280_pressure;Samples;Min_cycle;Max_cycle;Signal;HPM_P1;HPM_P2
2022/06/03 00:02:12;;;;;;;3.70;2.20;;;;;;;8.22;57.90;101601.12;1755647;81;20920;-81
2022/06/03 00:05:17;;;;;;;2.80;2.50;;;;;;;8.17;57.91;101595.49;1735848;80;20900;-82
2022/06/03 00:07:58;;;;;;;3.27;2.45;;;;;;;8.13;58.09;101595.89;1756158;80;21034;-81
2022/06/03 00:11:14;;;;;;;3.05;2.67;;;;;;;8.12;58.23;101594.58;1789224;80;21447;-82
2022/06/03 00:14:11;;;;;;;3.90;2.95;;;;;;;8.11;58.19;101595.44;1758088;80;21051;-82
2022/06/03 00:16:52;;;;;;;3.50;2.90;;;;;;;8.10;58.37;101592.42;1785707;80;20992;-81
2022/06/03 00:19:42;;;;;;;4.22;2.95;;;;;;;8.12;58.39;101604.89;1749337;81;21135;-82
2022/06/03 00:22:33;;;;;;;3.25;2.90;;;;;;;8.07;58.34;101598.40;1764148;80;21044;-82
2022/06/03 00:25:39;;;;;;;3.95;3.20;;;;;;;8.04;58.34;101594.50;1756032;80;21008;-81
2022/06/03 00:28:30;;;;;;;3.85;2.40;;;;;;;7.96;58.41;101593.56;1737035;81;21043;-81
2022/06/03 00:31:21;;;;;;;3.05;2.70;;;;;;;7.88;58.48;101590.91;1777415;80;21686;-81
2022/06/03 00:34:19;;;;;;;4.87;2.77;;;;;;;7.84;58.49;101594.72;1770617;80;21059;-80
2022/06/03 00:37:36;;;;;;;4.30;3.33;;;;;;;7.78;58.64;101592.97;1776578;79;21095;-81
2022/06/03 00:40:30;;;;;;;3.72;2.70;;;;;;;7.77;58.73;101591.67;1770110;81;20976;-82
2022/06/03 00:43:27;;;;;;;2.70;2.50;;;;;;;7.70;58.72;101595.02;1770605;80;21036;-81
2022/06/03 00:46:05;;;;;;;3.95;3.02;;;;;;;7.66;58.75;101583.82;1640430;87;21095;-81
2022/06/03 00:48:36;;;;;;;3.25;2.95;;;;;;;7.63;58.94;101587.22;1640284;87;21127;-81
2022/06/03 00:51:38;;;;;;;4.55;2.95;;;;;;;7.62;58.97;101587.20;1639924;85;21099;-81
2022/06/03 00:54:25;;;;;;;4.15;3.20;;;;;;;7.61;58.92;101588.05;1642041;85;21107;-81
2022/06/03 00:57:08;;;;;;;3.75;2.92;;;;;;;7.52;58.96;101591.38;1612749;88;21112;-81
2022/06/03 00:59:43;;;;;;;5.55;3.20;;;;;;;7.45;59.00;101593.44;1629494;86;21734;-81
2022/06/03 01:02:17;;;;;;;3.62;3.02;;;;;;;7.41;59.14;101598.52;1640475;87;21100;-81
2022/06/03 01:05:07;;;;;;;4.40;3.50;;;;;;;7.40;59.22;101596.37;1639747;87;21099;-80
2022/06/03 01:07:55;;;;;;;3.30;3.00;;;;;;;7.42;59.35;101598.96;1636817;87;21143;-80
2022/06/03 01:10:41;;;;;;;3.47;3.17;;;;;;;7.36;59.31;101591.16;1640823;87;21096;-81
2022/06/03 01:13:36;;;;;;;5.35;3.00;;;;;;;7.29;59.34;101592.37;1640474;87;21115;-80
2022/06/03 01:16:32;;;;;;;4.22;2.85;;;;;;;7.25;59.38;101592.34;1646687;81;21092;-80
2022/06/03 01:19:05;;;;;;;3.60;2.92;;;;;;;7.21;59.44;101586.30;1739418;81;21063;-80
2022/06/03 01:21:46;;;;;;;4.10;3.27;;;;;;;7.20;59.56;101592.70;1752724;80;20991;-81
2022/06/03 01:24:44;;;;;;;3.40;2.80;;;;;;;7.19;59.61;101593.13;1770111;81;21097;-81
2022/06/03 01:27:52;;;;;;;3.50;3.15;;;;;;;7.17;59.65;101598.67;1754071;80;21113;-81
2022/06/03 01:30:54;;;;;;;7.53;3.05;;;;;;;7.10;59.62;101595.98;1777947;79;21050;-81
2022/06/03 01:33:58;;;;;;;5.65;3.45;;;;;;;7.09;59.66;101600.27;1771625;80;21077;-80
2022/06/03 01:36:46;;;;;;;4.03;3.55;;;;;;;7.04;59.74;101597.19;1791874;78;21053;-79
2022/06/03 01:39:37;;;;;;;4.17;3.42;;;;;;;6.97;59.83;101594.52;1792663;79;20902;-82
2022/06/03 01:42:47;;;;;;;6.15;3.62;;;;;;;6.94;59.89;101594.91;1780520;77;20907;-81
2022/06/03 01:45:38;;;;;;;4.60;3.20;;;;;;;6.98;60.09;101592.82;1694038;83;20899;-81
2022/06/03 01:48:35;;;;;;;4.85;2.90;;;;;;;6.99;60.00;101594.55;1769813;80;20912;-81
2022/06/03 01:51:13;;;;;;;4.35;3.35;;;;;;;6.95;59.98;101594.06;1795857;79;20896;-80
2022/06/03 01:53:57;;;;;;;4.80;3.50;;;;;;;6.94;60.12;101599.63;1771365;81;20947;-80
2022/06/03 01:56:37;;;;;;;3.15;2.62;;;;;;;6.91;60.14;101593.15;1738989;81;20927;-80
2022/06/03 01:59:31;;;;;;;3.52;3.22;;;;;;;6.95;60.21;101601.36;1758446;80;20905;-80
2022/06/03 02:02:37;;;;;;;3.25;2.80;;;;;;;6.90;60.13;101602.13;1783226;80;20920;-80
2022/06/03 02:05:24;;;;;;;2.72;2.50;;;;;;;6.83;60.20;101598.59;1760979;80;20929;-82
2022/06/03 02:08:08;;;;;;;5.72;3.00;;;;;;;6.80;60.26;101606.69;1765845;81;20935;-82
2022/06/03 02:11:05;;;;;;;3.62;3.35;;;;;;;6.77;60.29;101604.06;1763284;81;20953;-82
2022/06/03 02:14:01;;;;;;;5.22;2.95;;;;;;;6.69;60.38;101606.55;1778725;79;21333;-82
2022/06/03 02:16:57;;;;;;;3.15;2.80;;;;;;;6.61;60.46;101603.86;1778139;80;20916;-82
2022/06/03 02:19:57;;;;;;;4.10;3.55;;;;;;;6.58;60.44;101607.66;1792225;79;20916;-82
2022/06/03 02:23:06;;;;;;;3.58;3.25;;;;;;;6.56;60.51;101604.20;1792191;79;20861;-82
2022/06/03 02:25:43;;;;;;;4.03;3.35;;;;;;;6.53;60.62;101599.43;1761022;81;20896;-82
2022/06/03 02:28:40;;;;;;;3.50;3.17;;;;;;;6.54;60.70;101603.31;1777714;79;20893;-82
2022/06/03 02:31:33;;;;;;;4.55;3.72;;;;;;;6.56;60.76;101604.20;1723277;83;20913;-82
2022/06/03 02:34:26;;;;;;;4.65;3.17;;;;;;;6.53;60.81;101605.44;1788956;79;21361;-82
2022/06/03 02:37:10;;;;;;;4.03;2.80;;;;;;;6.51;60.86;101606.25;1791716;80;20884;-82
2022/06/03 02:40:12;;;;;;;5.28;2.95;;;;;;;6.46;60.76;101611.31;1726519;82;20929;-82
2022/06/03 02:43:02;;;;;;;2.43;2.10;;;;;;;6.44;60.81;101610.42;1717416;83;21024;-82
2022/06/03 02:45:54;;;;;;;3.98;2.75;;;;;;;6.39;60.82;101608.19;1726405;83;21099;-82
2022/06/03 02:49:13;;;;;;;3.08;2.77;;;;;;;6.37;60.85;101610.29;1724495;82;21048;-82
2022/06/03 02:52:10;;;;;;;4.95;3.20;;;;;;;6.35;60.94;101607.69;1743174;81;21105;-82
2022/06/03 02:55:06;;;;;;;4.95;2.85;;;;;;;6.31;61.02;101607.19;1754578;81;20956;-82
2022/06/03 02:57:41;;;;;;;3.98;3.60;;;;;;;6.33;61.20;101613.64;1674714;85;20913;-81
2022/06/03 03:00:18;;;;;;;6.15;3.33;;;;;;;6.39;61.28;101616.31;1673638;85;20968;-81
2022/06/03 03:03:17;;;;;;;5.78;4.15;;;;;;;6.44;61.28;101617.27;1642561;87;20934;-81
2022/06/03 03:06:22;;;;;;;3.95;3.60;;;;;;;6.40;61.29;101618.91;1615820;88;21034;-81
2022/06/03 03:09:19;;;;;;;6.72;3.15;;;;;;;6.36;61.40;101620.12;1663851;85;20936;-81
2022/06/03 03:12:09;;;;;;;3.83;3.30;;;;;;;6.33;61.32;101621.34;1648712;85;20941;-81
2022/06/03 03:15:26;;;;;;;3.95;3.20;;;;;;;6.29;61.39;101621.30;1653461;86;21359;-82
2022/06/03 03:18:17;;;;;;;3.62;3.20;;;;;;;6.29;61.47;101620.42;1656113;85;20939;-81
2022/06/03 03:21:14;;;;;;;3.37;2.90;;;;;;;6.35;61.60;101615.40;1673745;85;20941;-81
2022/06/03 03:24:13;;;;;;;3.90;3.20;;;;;;;6.38;61.53;101621.01;1641308;87;21065;-81
2022/06/03 03:27:03;;;;;;;6.47;3.80;;;;;;;6.41;61.61;101616.79;1612365;88;21076;-81
2022/06/03 03:29:57;;;;;;;5.50;4.00;;;;;;;6.46;61.71;101619.02;1654424;86;21012;-81
2022/06/03 03:33:04;;;;;;;5.25;3.35;;;;;;;6.52;61.77;101618.26;1640042;84;21185;-81
2022/06/03 03:36:20;;;;;;;3.80;3.30;;;;;;;6.57;61.86;101619.20;1695945;84;21185;-80
2022/06/03 03:39:23;;;;;;;5.72;3.40;;;;;;;6.62;61.86;101617.15;1692468;84;21180;-81
2022/06/03 03:42:38;;;;;;;4.10;3.58;;;;;;;6.66;61.88;101623.63;1680334;85;20993;-82
2022/06/03 03:45:50;;;;;;;4.20;3.80;;;;;;;6.72;62.00;101625.01;1678020;85;21513;-81
2022/06/03 03:48:39;;;;;;;4.05;3.50;;;;;;;6.79;62.04;101623.81;1694411;83;21079;-80
2022/06/03 03:51:17;;;;;;;4.17;3.65;;;;;;;6.82;62.15;101620.42;1691155;84;21110;-82
2022/06/03 03:54:31;;;;;;;4.35;3.95;;;;;;;6.87;62.23;101618.38;1693231;84;20952;-81
2022/06/03 03:57:28;;;;;;;5.62;3.72;;;;;;;6.91;62.26;101620.14;1703623;81;20933;-81
2022/06/03 04:00:23;;;;;;;4.28;3.85;;;;;;;7.00;62.39;101621.99;1727480;82;20871;-81
2022/06/03 04:03:19;;;;;;;5.50;4.42;;;;;;;7.13;62.58;101625.61;1724662;81;20957;-81
2022/06/03 04:06:05;;;;;;;5.10;3.97;;;;;;;7.38;62.74;101633.22;1706884;82;20944;-81
2022/06/03 04:08:52;;;;;;;4.85;4.12;;;;;;;7.76;62.86;101633.70;1715307;81;21383;-80
2022/06/03 04:12:15;;;;;;;4.55;3.90;;;;;;;8.07;62.88;101629.31;1702649;82;21428;-80
2022/06/03 04:14:53;;;;;;;4.60;4.20;;;;;;;8.32;62.86;101625.23;1728040;82;20933;-80
2022/06/03 04:17:50;;;;;;;6.70;4.50;;;;;;;8.53;62.86;101629.77;1728060;81;20905;-81
2022/06/03 04:20:46;;;;;;;5.03;4.05;;;;;;;8.62;62.84;101633.28;1733723;82;20878;-82
2022/06/03 04:23:39;;;;;;;4.50;4.10;;;;;;;8.68;62.83;101630.31;1725710;82;20993;-83
2022/06/03 04:26:24;;;;;;;4.58;3.85;;;;;;;8.78;62.97;101621.80;1737160;79;20924;-82
2022/06/03 04:28:58;;;;;;;5.97;4.17;;;;;;;8.89;63.02;101630.45;1782207;79;21445;-83
2022/06/03 04:32:04;;;;;;;4.22;3.62;;;;;;;9.01;63.08;101632.25;1761022;79;20897;-82
2022/06/03 04:34:48;;;;;;;4.95;4.40;;;;;;;9.10;63.08;101639.63;1769935;81;20908;-82
2022/06/03 04:37:35;;;;;;;4.30;3.90;;;;;;;9.20;63.09;101637.97;1754770;80;21326;-82
2022/06/03 04:40:33;;;;;;;4.50;4.10;;;;;;;9.27;63.17;101639.31;1757138;80;20952;-82
2022/06/03 04:43:25;;;;;;;4.62;4.22;;;;;;;9.40;63.26;101634.19;1700468;83;21750;-82
2022/06/03 04:46:20;;;;;;;5.15;4.22;;;;;;;9.55;63.34;101645.45;1682589;84;21042;-82
2022/06/03 04:49:26;;;;;;;6.30;4.53;;;;;;;9.71;63.37;101644.23;1683957;83;21004;-82
2022/06/03 04:52:23;;;;;;;5.72;5.22;;;;;;;9.87;63.45;101639.12;1676491;83;21778;-82
2022/06/03 04:55:27;;;;;;;10.72;5.12;;;;;;;10.09;63.50;101650.80;1686486;83;22227;-82
2022/06/03 04:58:38;;;;;;;5.40;4.90;;;;;;;10.32;63.62;101654.33;1694068;83;22429;-82
2022/06/03 05:01:45;;;;;;;4.67;4.28;;;;;;;10.69;63.76;101654.34;1703953;83;21713;-82
2022/06/03 05:04:39;;;;;;;5.20;4.70;;;;;;;11.45;64.01;101648.56;1686710;83;21517;-81
2022/06/03 05:07:56;;;;;;;4.80;4.40;;;;;;;12.49;64.14;101648.02;1686683;83;21680;-82
2022/06/03 05:11:03;;;;;;;4.25;3.87;;;;;;;13.61;64.17;101648.66;1659403;84;21727;-77
2022/06/03 05:14:02;;;;;;;3.42;3.12;;;;;;;14.66;64.09;101648.45;1681692;82;20869;-77
2022/06/03 05:16:54;;;;;;;6.12;3.90;;;;;;;15.76;63.88;101650.30;1769756;78;21526;-77
2022/06/03 05:19:51;;;;;;;3.77;3.35;;;;;;;16.72;63.67;101641.55;1760570;80;21449;-77
2022/06/03 05:22:58;;;;;;;3.30;3.00;;;;;;;17.56;63.33;101649.30;1779482;78;21512;-77
2022/06/03 05:25:49;;;;;;;3.50;3.20;;;;;;;18.33;63.20;101648.70;1747275;80;21576;-77
2022/06/03 05:28:26;;;;;;;3.75;3.45;;;;;;;18.98;62.95;101649.61;1754519;80;21555;-78
2022/06/03 05:31:24;;;;;;;4.08;2.98;;;;;;;19.54;62.68;101652.00;1785460;78;21547;-77
2022/06/03 05:34:28;;;;;;;6.00;3.87;;;;;;;20.14;62.71;101655.36;1750570;80;21609;-69
2022/06/03 05:37:28;;;;;;;27.37;3.90;;;;;;;20.60;62.42;101656.61;1772868;80;21502;-74
2022/06/03 05:40:06;;;;;;;3.17;2.83;;;;;;;20.78;62.00;101654.08;1756941;80;21144;-71
2022/06/03 05:43:11;;;;;;;3.45;3.08;;;;;;;20.86;61.96;101651.09;1787262;78;21594;-74
2022/06/03 05:45:54;;;;;;;3.90;3.30;;;;;;;20.92;61.81;101652.16;1781782;79;21031;-75
2022/06/03 05:48:46;;;;;;;5.10;3.87;;;;;;;20.98;61.53;101654.53;1747150;80;21519;-74
2022/06/03 05:51:52;;;;;;;18.02;6.22;;;;;;;20.94;61.49;101645.06;1784154;80;21041;-72
2022/06/03 05:55:05;;;;;;;3.67;3.30;;;;;;;21.11;61.40;101645.66;1787763;79;21544;-71
2022/06/03 05:58:00;;;;;;;4.12;3.77;;;;;;;21.26;61.10;101652.05;1699353;83;21612;-71
2022/06/03 06:00:43;;;;;;;3.90;3.47;;;;;;;21.74;61.08;101655.55;1664108;84;21551;-69
2022/06/03 06:03:53;;;;;;;3.90;3.60;;;;;;;22.09;60.64;101647.33;1715061;83;21121;-68
2022/06/03 06:06:41;;;;;;;3.90;3.60;;;;;;;22.41;60.64;101649.70;1723417;81;21082;-71
2022/06/03 06:09:45;;;;;;;3.42;3.12;;;;;;;22.83;60.33;101641.95;1713628;81;21484;-77
2022/06/03 06:12:31;;;;;;;3.22;3.02;;;;;;;23.13;59.91;101648.27;1711090;83;21108;-73
2022/06/03 06:15:50;;;;;;;2.60;2.40;;;;;;;23.55;59.85;101652.22;1731903;81;21732;-73
2022/06/03 06:18:44;;;;;;;2.87;2.37;;;;;;;24.03;59.51;101656.13;1727616;81;21130;-74
2022/06/03 06:21:30;;;;;;;2.25;1.98;;;;;;;24.51;59.08;101660.05;1686671;83;21009;-75
2022/06/03 06:24:05;;;;;;;1.65;1.55;;;;;;;24.82;58.46;101659.97;1708531;81;20909;-75
2022/06/03 06:26:46;;;;;;;2.30;1.90;;;;;;;25.34;58.43;101661.67;1719447;81;21562;-75
2022/06/03 06:29:41;;;;;;;4.87;2.90;;;;;;;26.16;58.41;101662.22;1719559;82;20980;-74
2022/06/03 06:32:31;;;;;;;2.15;1.50;;;;;;;26.96;58.14;101660.00;1692596;82;20948;-74
2022/06/03 06:35:29;;;;;;;5.92;1.60;;;;;;;27.82;57.46;101661.47;1721383;81;20920;-74
2022/06/03 06:38:04;;;;;;;3.02;1.22;;;;;;;28.34;57.15;101664.33;1740439;81;20997;-75
2022/06/03 06:41:01;;;;;;;1.37;1.27;;;;;;;28.97;56.37;101663.11;1743482;81;20956;-75
2022/06/03 06:43:49;;;;;;;1.07;0.98;;;;;;;29.32;55.38;101662.53;1742925;82;21460;-83
2022/06/03 06:46:33;;;;;;;1.37;1.00;;;;;;;29.72;55.20;101655.86;1754042;80;20909;-73
2022/06/03 06:49:25;;;;;;;0.75;0.72;;;;;;;30.33;54.17;101657.55;1740027;81;20853;-73
2022/06/03 06:52:18;;;;;;;0.78;0.78;;;;;;;30.77;53.52;101657.35;1747239;82;21031;-73
2022/06/03 06:55:11;;;;;;;0.80;0.75;;;;;;;31.21;53.04;101648.70;1710705;82;20886;-73
2022/06/03 06:57:50;;;;;;;1.70;0.75;;;;;;;32.02;52.31;101645.53;1743020;81;21051;-72
2022/06/03 07:00:32;;;;;;;1.92;0.90;;;;;;;32.13;51.19;101646.74;1738504;82;21226;-73
2022/06/03 07:03:06;;;;;;;0.60;0.60;;;;;;;32.29;50.62;101643.52;1754407;80;20931;-71
2022/06/03 07:05:46;;;;;;;0.80;0.80;;;;;;;32.32;49.79;101641.89;1745367;81;20893;-71
2022/06/03 07:08:30;;;;;;;1.10;0.90;;;;;;;32.33;48.75;101636.89;1767487;80;21017;-73
2022/06/03 07:11:11;;;;;;;12.95;2.75;;;;;;;32.56;48.21;101636.96;1781592;79;21420;-74
2022/06/03 07:14:03;;;;;;;8.75;2.80;;;;;;;32.78;46.93;101632.63;1743195;81;20999;-74
2022/06/03 07:19:52;;;;;;;2.62;1.10;;;;;;;33.29;46.03;101634.53;1773461;80;21012;-74
2022/06/03 07:22:29;;;;;;;4.25;2.02;;;;;;;33.10;44.98;101629.59;1617778;80;5001420;-74
2022/06/03 07:25:22;;;;;;;4.87;1.72;;;;;;;32.67;43.71;101632.79;1624202;87;20978;-74
2022/06/03 07:28:12;;;;;;;3.52;1.30;;;;;;;32.00;43.21;101622.92;1627060;87;20954;-75
2022/06/03 07:31:13;;;;;;;0.70;0.70;;;;;;;31.39;42.49;101615.51;1599402;88;20972;-75
2022/06/03 07:33:47;;;;;;;4.47;1.02;;;;;;;30.86;41.72;101616.51;1545019;92;20951;-75
2022/06/03 07:36:35;;;;;;;3.37;1.60;;;;;;;30.40;41.04;101611.55;1541322;91;20943;-73
2022/06/03 07:39:22;;;;;;;1.55;0.90;;;;;;;30.27;40.80;101612.20;1564006;89;20981;-79
2022/06/03 07:42:02;;;;;;;1.70;1.20;;;;;;;30.16;40.16;101613.09;1575992;89;20965;-78
2022/06/03 07:44:57;;;;;;;2.20;1.17;;;;;;;29.97;39.81;101612.91;1581791;89;20965;-78
2022/06/03 07:47:26;;;;;;;3.80;1.00;;;;;;;29.92;39.70;101612.44;1583625;89;21012;-78
2022/06/03 07:49:58;;;;;;;5.65;1.47;;;;;;;30.14;39.22;101608.89;1579775;89;20941;-78
2022/06/03 07:52:35;;;;;;;7.70;1.32;;;;;;;30.07;38.55;101603.21;1583511;89;20949;-78
2022/06/03 07:55:07;;;;;;;6.28;1.02;;;;;;;29.78;38.39;101612.23;1550617;91;20967;-81
2022/06/03 07:57:33;;;;;;;2.00;0.82;;;;;;;29.69;38.24;101604.97;1582091;89;21026;-82
2022/06/03 08:00:04;;;;;;;0.62;0.62;;;;;;;29.58;37.72;101608.53;1587723;89;21066;-80
2022/06/03 08:02:31;;;;;;;1.02;0.68;;;;;;;29.48;37.48;101608.05;1574940;89;21047;-79
2022/06/03 08:05:08;;;;;;;0.65;0.60;;;;;;;29.47;37.02;101604.55;1582628;89;20995;-79
2022/06/03 08:13:20;;;;;;;1.40;0.85;;;;;;;28.97;36.21;101603.19;1663739;85;20956;-80
2022/06/03 08:16:03;;;;;;;3.45;0.75;;;;;;;28.93;35.85;101603.06;1630977;86;20903;-81
2022/06/03 08:18:42;;;;;;;1.42;0.70;;;;;;;28.81;35.59;101594.17;1675814;85;20932;-80
2022/06/03 08:21:17;;;;;;;1.80;0.80;;;;;;;28.63;35.36;101591.59;1635879;87;20951;-80
2022/06/03 08:23:45;;;;;;;1.05;0.80;;;;;;;28.57;34.95;101594.27;1663641;85;20996;-80
2022/06/03 08:26:17;;;;;;;1.92;0.82;;;;;;;28.50;34.72;101585.05;1663606;85;20909;-81
2022/06/03 08:28:48;;;;;;;4.17;1.30;;;;;;;28.57;34.58;101594.75;1673781;84;20917;-80
2022/06/03 08:31:18;;;;;;;0.70;0.60;;;;;;;28.61;34.21;101596.19;1646834;85;21044;-80
2022/06/03 08:33:50;;;;;;;0.60;0.60;;;;;;;28.49;34.10;101594.00;1656436;85;20945;-81
2022/06/03 08:36:34;;;;;;;0.80;0.80;;;;;;;28.56;33.98;101592.58;1654966;85;20982;-81
2022/06/03 08:39:22;;;;;;;2.92;0.78;;;;;;;28.60;33.70;101595.82;1645706;85;20953;-82
2022/06/03 08:42:30;;;;;;;1.45;0.70;;;;;;;28.44;33.52;101588.18;1609329;88;20916;-81
2022/06/03 08:45:13;;;;;;;1.75;1.25;;;;;;;28.59;33.38;101597.66;1616758;87;20989;-81
2022/06/03 08:47:54;;;;;;;0.80;0.70;;;;;;;28.80;33.67;101596.95;1671253;85;20949;-81
2022/06/03 08:50:47;;;;;;;0.98;0.70;;;;;;;29.17;33.37;101594.46;1657285;85;20957;-82
2022/06/03 08:53:24;;;;;;;2.98;0.90;;;;;;;29.46;33.13;101596.67;1665210;85;20964;-81
2022/06/03 08:56:11;;;;;;;1.57;0.80;;;;;;;29.48;32.71;101600.91;1616153;88;20953;-81
2022/06/03 08:58:54;;;;;;;1.92;0.93;;;;;;;29.55;32.77;101591.45;1659008;85;20933;-81
2022/06/03 09:01:58;;;;;;;0.85;0.80;;;;;;;29.82;33.02;101599.49;1649079;85;20940;-81
2022/06/03 09:04:41;;;;;;;0.82;0.80;;;;;;;30.04;32.77;101594.12;1700107;82;21179;-81
2022/06/03 09:07:36;;;;;;;2.65;1.05;;;;;;;30.12;32.84;101590.34;1703655;82;20988;-81
2022/06/03 09:10:17;;;;;;;1.27;1.02;;;;;;;29.74;31.88;101601.45;1703095;82;20921;-81
2022/06/03 09:13:03;;;;;;;0.90;0.68;;;;;;;28.69;32.06;101595.12;1700768;82;20909;-81
2022/06/03 09:15:34;;;;;;;3.60;0.80;;;;;;;27.95;31.90;101590.50;1673985;83;27034;-81
2022/06/03 09:18:27;;;;;;;0.85;0.75;;;;;;;27.39;31.33;101593.73;1703208;82;20923;-81
2022/06/03 09:21:13;;;;;;;0.93;0.90;;;;;;;26.81;31.40;101592.00;1702881;83;21085;-81
2022/06/03 09:23:48;;;;;;;3.90;1.07;;;;;;;26.40;31.44;101597.96;1701651;83;20928;-81
2022/06/03 09:26:28;;;;;;;1.12;0.93;;;;;;;25.91;31.15;101595.39;1703338;83;20965;-81
2022/06/03 09:28:58;;;;;;;2.22;0.80;;;;;;;25.55;31.09;101599.02;1695488;83;20999;-81
2022/06/03 09:31:25;;;;;;;2.75;1.27;;;;;;;25.14;31.10;101593.20;1695044;83;20956;-79
2022/06/03 09:33:53;;;;;;;2.22;0.75;;;;;;;24.94;31.15;101598.86;1694433;83;20874;-79
2022/06/03 09:36:23;;;;;;;1.72;1.10;;;;;;;24.72;31.07;101594.85;1667399;84;21248;-80
2022/06/03 09:39:00;;;;;;;1.30;1.10;;;;;;;24.59;30.95;101595.20;1663364;84;20961;-80
2022/06/03 09:41:43;;;;;;;1.00;0.80;;;;;;;24.48;31.04;101598.94;1639905;86;21412;-79
2022/06/03 09:44:14;;;;;;;2.90;1.15;;;;;;;24.35;31.01;101597.51;1676569;84;20905;-81
2022/06/03 09:46:44;;;;;;;1.12;0.88;;;;;;;24.16;31.41;101590.22;1662985;84;20905;-80
2022/06/03 09:49:12;;;;;;;1.60;0.90;;;;;;;24.16;31.41;101590.22;1667372;85;20945;-80
2022/06/03 09:51:56;;;;;;;1.60;0.98;;;;;;;24.06;31.02;101589.04;1671838;85;20969;-80
2022/06/03 09:54:41;;;;;;;1.75;1.10;;;;;;;23.86;31.04;101586.23;1666128;85;20916;-80
2022/06/03 09:57:34;;;;;;;1.27;1.17;;;;;;;23.63;31.09;101575.62;1651497;85;20963;-80
2022/06/03 10:00:21;;;;;;;10.88;1.30;;;;;;;23.44;31.14;101570.45;1660404;85;20890;-81
2022/06/03 10:02:48;;;;;;;1.37;1.20;;;;;;;23.20;31.13;101571.81;1667116;84;21372;-80
2022/06/03 10:05:16;;;;;;;;;;;;;;;23.18;31.39;101571.04;1671179;85;20984;-81
2022/06/03 10:07:45;;;;;;;2.45;1.10;;;;;;;23.21;31.56;101571.34;1668500;84;20147;-81
2022/06/03 10:13:01;;;;;;;2.87;1.10;;;;;;;23.21;31.47;101567.38;1663041;84;20929;-81
2022/06/03 10:15:38;;;;;;;1.80;1.27;;;;;;;23.21;31.49;101566.91;1658086;85;21436;-82
2022/06/03 10:18:24;;;;;;;2.05;1.37;;;;;;;23.14;31.48;101556.30;1669706;85;20976;-82
2022/06/03 10:20:53;;;;;;;;;;;;;;;23.07;31.47;101554.92;1669104;84;20920;-83
2022/06/03 10:23:22;;;;;;;2.77;0.80;;;;;;;22.88;31.56;101545.80;1670314;84;20378;-82
2022/06/03 10:25:49;;;;;;;3.80;0.90;;;;;;;22.85;31.68;101546.46;1662754;84;20961;-82
2022/06/03 10:28:16;;;;;;;1.35;0.90;;;;;;;22.90;31.74;101549.22;1649389;84;21169;-82
2022/06/03 10:30:45;;;;;;;6.35;0.93;;;;;;;22.93;31.72;101549.52;1583535;89;21024;-84
2022/06/03 10:33:18;;;;;;;1.87;1.35;;;;;;;22.95;31.77;101549.83;1586811;89;21147;-84
2022/06/03 10:35:46;;;;;;;1.82;1.30;;;;;;;22.97;31.77;101544.00;1595107;88;20918;-83
2022/06/03 10:38:20;;;;;;;1.12;1.00;;;;;;;22.97;31.87;101543.16;1619719;87;21247;-83
2022/06/03 10:40:51;;;;;;;2.00;1.00;;;;;;;22.98;31.87;101535.16;1597223;89;21061;-82
2022/06/03 10:43:30;;;;;;;2.35;0.88;;;;;;;22.96;31.94;101534.38;1620096;85;20996;-82
2022/06/03 10:46:16;;;;;;;1.75;1.10;;;;;;;22.95;32.03;101527.41;1592144;89;21169;-81
2022/06/03 10:48:47;;;;;;;1.60;1.05;;;;;;;22.99;32.07;101527.63;1609310;88;21657;-81
2022/06/03 11:01:06;;;;;;;2.65;1.07;;;;;;;23.03;32.20;101522.58;1611798;88;21019;-81
2022/06/03 11:02:39;;;;;;;4.15;0.95;;;;;;;22.83;32.24;101507.45;1603554;88;20927;-81
2022/06/03 11:05:25;;;;;;;3.40;1.00;;;;;;;22.66;32.32;101499.07;1615513;88;20947;-81
2022/06/03 11:08:03;;;;;;;1.47;1.25;;;;;;;22.65;32.46;101495.58;1592457;88;20964;-81
2022/06/03 11:10:38;;;;;;;0.95;0.93;;;;;;;22.62;32.33;101494.42;1586703;88;21149;-81
2022/06/03 11:13:08;;;;;;;2.75;0.90;;;;;;;22.54;32.40;101485.20;1624326;87;21051;-81
2022/06/03 11:15:42;;;;;;;2.87;0.98;;;;;;;22.63;32.56;101481.63;1628579;87;21362;-81
2022/06/03 11:18:29;;;;;;;1.80;1.02;;;;;;;22.76;32.59;101490.59;1615250;86;21641;-81
2022/06/03 11:21:02;;;;;;;1.85;1.20;;;;;;;22.84;32.49;101495.50;1572719;88;21148;-81
2022/06/03 11:23:30;;;;;;;1.57;0.82;;;;;;;22.71;32.46;101482.55;1604126;87;38632;-81
2022/06/03 11:26:00;;;;;;;1.50;0.70;;;;;;;22.67;32.56;101476.58;1580816;88;21434;-80
2022/06/03 11:28:38;;;;;;;1.22;1.00;;;;;;;22.72;32.54;101479.83;1584121;88;21095;-80
2022/06/03 11:31:18;;;;;;;3.17;1.10;;;;;;;22.77;32.58;101482.22;1607923;87;21008;-82
2022/06/03 11:34:23;;;;;;;2.30;0.70;;;;;;;22.80;32.65;101478.14;1598594;88;21128;-82
2022/06/03 11:37:13;;;;;;;3.85;1.12;;;;;;;22.90;32.69;101479.78;1617951;87;20962;-82
2022/06/03 11:39:51;;;;;;;3.77;0.78;;;;;;;23.04;32.62;101476.80;1616499;87;20885;-82
2022/06/03 11:42:37;;;;;;;0.62;0.62;;;;;;;23.14;32.66;101477.61;1652250;85;21300;-82
2022/06/03 11:45:18;;;;;;;;;;;;;;;23.19;32.67;101464.55;1665375;85;20983;-81
2022/06/03 11:48:05;;;;;;;3.75;0.80;;;;;;;23.22;32.65;101465.70;1647889;86;20113;-80
2022/06/03 11:50:33;;;;;;;0.90;0.90;;;;;;;23.24;32.74;101466.94;1658907;85;20965;-80
2022/06/03 11:52:59;;;;;;;2.22;1.00;;;;;;;23.28;32.65;101463.20;1660416;85;20993;-80
2022/06/03 11:55:29;;;;;;;1.00;0.62;;;;;;;23.27;32.66;101456.21;1600978;87;20940;-80
2022/06/03 11:58:07;;;;;;;1.10;0.80;;;;;;;23.17;32.54;101456.34;1636592;85;20882;-80
2022/06/03 12:00:40;;;;;;;0.90;0.75;;;;;;;23.06;32.62;101456.92;1658801;85;20937;-80
2022/06/03 12:03:18;;;;;;;1.17;0.98;;;;;;;23.05;32.60;101456.07;1655682;85;20985;-81
2022/06/03 12:05:50;;;;;;;2.67;0.88;;;;;;;23.00;32.57;101443.59;1662769;85;20925;-81
2022/06/03 12:08:31;;;;;;;0.98;0.70;;;;;;;22.98;32.64;101440.66;1661874;85;20897;-81
2022/06/03 12:13:14;;;;;;;2.70;0.70;;;;;;;23.06;32.60;101442.41;1619781;86;21123;-81
2022/06/03 12:13:42;;;;;;;1.00;0.90;;;;;;;23.11;32.63;101443.86;1652079;85;20949;-82
2022/06/03 12:16:14;;;;;;;3.52;0.60;;;;;;;23.15;32.53;101439.27;1662586;85;20945;-81
2022/06/03 12:19:01;;;;;;;3.05;0.93;;;;;;;23.14;32.43;101438.03;1610755;87;21006;-82
2022/06/03 12:21:38;;;;;;;1.27;0.70;;;;;;;23.11;32.38;101431.14;1609937;87;20985;-81
2022/06/03 12:24:28;;;;;;;0.72;0.72;;;;;;;23.11;32.55;101433.78;1619274;87;20956;-81
2022/06/03 12:26:55;;;;;;;1.77;0.82;;;;;;;23.22;32.60;101435.83;1629410;87;20937;-81
2022/06/03 12:29:36;;;;;;;3.30;0.85;;;;;;;23.31;32.55;101428.72;1621476;87;21514;-81
2022/06/03 12:32:20;;;;;;;3.17;0.70;;;;;;;23.37;32.60;101423.09;1651467;85;21422;-75
2022/06/03 12:34:46;;;;;;;1.30;0.80;;;;;;;23.41;32.57;101417.52;1648333;85;20921;-75
2022/06/03 12:37:28;;;;;;;1.22;0.70;;;;;;;23.42;32.47;101417.91;1652624;85;20945;-75
2022/06/03 12:40:02;;;;;;;0.80;0.80;;;;;;;23.45;32.49;101424.80;1649238;85;20933;-75
2022/06/03 12:42:40;;;;;;;1.65;1.00;;;;;;;23.37;32.49;101410.75;1581602;88;21398;-75
2022/06/03 12:45:15;;;;;;;0.80;0.80;;;;;;;23.36;32.48;101409.52;1613689;87;20941;-75
2022/06/03 12:47:50;;;;;;;1.02;0.95;;;;;;;23.32;32.48;101402.23;1614240;87;20964;-75
2022/06/03 12:50:36;;;;;;;2.67;0.90;;;;;;;23.33;32.39;101404.41;1650333;85;20953;-74
2022/06/03 12:53:27;;;;;;;2.65;0.93;;;;;;;23.23;32.36;101404.54;1657788;85;21417;-74
2022/06/03 12:55:57;;;;;;;2.52;0.72;;;;;;;23.20;32.38;101398.11;1654261;85;20988;-75
2022/06/03 12:58:55;;;;;;;1.12;0.80;;;;;;;23.22;32.34;101387.86;1655074;85;21690;-74
2022/06/03 13:01:48;;;;;;;1.57;0.80;;;;;;;23.21;32.34;101382.20;1655947;85;20987;-74
2022/06/03 13:04:44;;;;;;;2.25;0.70;;;;;;;23.19;32.24;101380.58;1607421;87;20981;-74
2022/06/03 13:07:32;;;;;;;1.10;0.70;;;;;;;23.23;32.34;101378.15;1618291;87;20902;-74
2022/06/03 13:10:18;;;;;;;1.47;1.07;;;;;;;23.27;32.27;101373.08;1655913;85;20960;-74
2022/06/03 13:12:51;;;;;;;5.65;0.85;;;;;;;23.34;32.25;101370.01;1652870;85;21394;-73
2022/06/03 13:15:30;;;;;;;2.12;0.93;;;;;;;23.45;32.26;101366.25;1652220;85;21496;-74
2022/06/03 13:20:51;;;;;;;1.67;1.20;;;;;;;23.59;32.05;101356.25;1637794;85;20925;-74
2022/06/03 13:23:35;;;;;;;1.07;0.68;;;;;;;23.53;32.12;101352.64;1608708;87;21709;-73